sensor_id;sensor_type;location;lat;lon;timestamp;P1;durP1;ratioP1;P2;durP2;ratioP2
1276;SDS011;631;51.024;13.826;2022-12-05T00:00:56;25.73;;;23.43;;
1276;SDS011;631;51.024;13.826;2022-12-05T00:03:21;26.27;;;23.67;;
1276;SDS011;631;51.024;13.826;2022-12-05T00:05:47;24.17;;;22.23;;
1276;SDS011;631;51.024;13.826;2022-12-05T00:08:13;26.70;;;24.30;;
1276;SDS011;631;51.024;13.826;2022-12-05T00:10:39;26.23;;;23.90;;
1276;SDS011;631;51.024;13.826;2022-12-05T00:13:05;26.20;;;23.83;;
1276;SDS011;631;51.024;13.826;2022-12-05T00:15:35;25.57;;;23.17;;
1276;SDS011;631;51.024;13.826;2022-12-05T00:18:02;24.80;;;22.60;;
1276;SDS011;631;51.024;13.826;2022-12-05T00:20:28;26.33;;;23.93;;
1276;SDS011;631;51.024;13.826;2022-12-05T00:22:53;26.00;;;23.80;;
1276;SDS011;631;51.024;13.826;2022-12-05T00:25:19;26.83;;;24.37;;
1276;SDS011;631;51.024;13.826;2022-12-05T00:27:44;25.97;;;23.67;;
1276;SDS011;631;51.024;13.826;2022-12-05T00:30:10;26.27;;;23.97;;
1276;SDS011;631;51.024;13.826;2022-12-05T00:32:36;27.13;;;24.53;;
1276;SDS011;631;51.024;13.826;2022-12-05T00:35:01;26.93;;;24.40;;
1276;SDS011;631;51.024;13.826;2022-12-05T00:37:27;26.20;;;23.90;;
1276;SDS011;631;51.024;13.826;2022-12-05T00:39:53;25.50;;;23.30;;
1276;SDS011;631;51.024;13.826;2022-12-05T00:42:18;26.40;;;23.90;;
1276;SDS011;631;51.024;13.826;2022-12-05T00:44:44;25.80;;;23.50;;
1276;SDS011;631;51.024;13.826;2022-12-05T00:47:09;25.83;;;23.50;;
1276;SDS011;631;51.024;13.826;2022-12-05T00:49:35;26.17;;;23.87;;
1276;SDS011;631;51.024;13.826;2022-12-05T00:52:01;26.60;;;24.10;;
1276;SDS011;631;51.024;13.826;2022-12-05T00:54:26;25.90;;;23.40;;
1276;SDS011;631;51.024;13.826;2022-12-05T00:56:52;26.23;;;23.93;;
1276;SDS011;631;51.024;13.826;2022-12-05T00:59:20;25.60;;;23.20;;
1276;SDS011;631;51.024;13.826;2022-12-05T01:01:47;26.00;;;23.70;;
1276;SDS011;631;51.024;13.826;2022-12-05T01:04:18;25.50;;;23.30;;
1276;SDS011;631;51.024;13.826;2022-12-05T01:06:47;26.73;;;24.17;;
1276;SDS011;631;51.024;13.826;2022-12-05T01:09:17;25.03;;;22.73;;
1276;SDS011;631;51.024;13.826;2022-12-05T01:11:44;25.50;;;23.20;;
1276;SDS011;631;51.024;13.826;2022-12-05T01:14:11;26.60;;;24.10;;
1276;SDS011;631;51.024;13.826;2022-12-05T01:16:39;25.73;;;23.23;;
1276;SDS011;631;51.024;13.826;2022-12-05T01:19:09;25.93;;;23.63;;
1276;SDS011;631;51.024;13.826;2022-12-05T01:21:37;26.43;;;24.00;;
1276;SDS011;631;51.024;13.826;2022-12-05T01:24:03;28.17;;;25.50;;
1276;SDS011;631;51.024;13.826;2022-12-05T01:26:28;26.63;;;24.23;;
1276;SDS011;631;51.024;13.826;2022-12-05T01:28:54;27.80;;;25.20;;
1276;SDS011;631;51.024;13.826;2022-12-05T01:31:22;28.10;;;25.50;;
1276;SDS011;631;51.024;13.826;2022-12-05T01:33:49;27.57;;;25.07;;
1276;SDS011;631;51.024;13.826;2022-12-05T01:36:16;27.43;;;24.80;;
1276;SDS011;631;51.024;13.826;2022-12-05T01:38:42;28.80;;;26.20;;
1276;SDS011;631;51.024;13.826;2022-12-05T01:41:12;27.00;;;24.40;;
1276;SDS011;631;51.024;13.826;2022-12-05T01:46:44;26.27;;;23.97;;
1276;SDS011;631;51.024;13.826;2022-12-05T01:51:48;26.13;;;23.70;;
1276;SDS011;631;51.024;13.826;2022-12-05T01:54:17;26.07;;;23.67;;
1276;SDS011;631;51.024;13.826;2022-12-05T01:56:44;27.13;;;24.43;;
1276;SDS011;631;51.024;13.826;2022-12-05T01:59:14;25.00;;;22.80;;
1276;SDS011;631;51.024;13.826;2022-12-05T02:01:41;26.23;;;23.73;;
1276;SDS011;631;51.024;13.826;2022-12-05T02:04:07;25.50;;;23.20;;
1276;SDS011;631;51.024;13.826;2022-12-05T02:06:34;25.57;;;23.40;;
1276;SDS011;631;51.024;13.826;2022-12-05T02:09:00;26.90;;;24.30;;
1276;SDS011;631;51.024;13.826;2022-12-05T02:11:26;27.30;;;24.57;;
1276;SDS011;631;51.024;13.826;2022-12-05T02:17:09;25.63;;;23.23;;
1276;SDS011;631;51.024;13.826;2022-12-05T02:19:58;26.90;;;24.10;;
1276;SDS011;631;51.024;13.826;2022-12-05T02:30:58;25.60;;;23.03;;
1276;SDS011;631;51.024;13.826;2022-12-05T02:33:40;25.87;;;23.53;;
1276;SDS011;631;51.024;13.826;2022-12-05T02:39:02;25.50;;;23.10;;
1276;SDS011;631;51.024;13.826;2022-12-05T02:42:00;25.57;;;23.30;;
1276;SDS011;631;51.024;13.826;2022-12-05T02:44:37;25.10;;;22.80;;
1276;SDS011;631;51.024;13.826;2022-12-05T02:47:10;25.93;;;23.53;;
1276;SDS011;631;51.024;13.826;2022-12-05T02:49:38;25.57;;;23.27;;
1276;SDS011;631;51.024;13.826;2022-12-05T02:52:07;26.23;;;23.83;;
1276;SDS011;631;51.024;13.826;2022-12-05T02:54:38;26.33;;;24.00;;
1276;SDS011;631;51.024;13.826;2022-12-05T02:57:06;25.40;;;22.93;;
1276;SDS011;631;51.024;13.826;2022-12-05T02:59:33;24.10;;;21.90;;
1276;SDS011;631;51.024;13.826;2022-12-05T03:01:59;25.80;;;23.40;;
1276;SDS011;631;51.024;13.826;2022-12-05T03:04:25;25.57;;;23.27;;
1276;SDS011;631;51.024;13.826;2022-12-05T03:06:59;25.40;;;23.10;;
1276;SDS011;631;51.024;13.826;2022-12-05T03:12:22;24.67;;;22.37;;
1276;SDS011;631;51.024;13.826;2022-12-05T03:14:56;25.20;;;22.97;;
1276;SDS011;631;51.024;13.826;2022-12-05T03:17:31;24.57;;;22.40;;
1276;SDS011;631;51.024;13.826;2022-12-05T03:20:06;24.60;;;22.47;;
1276;SDS011;631;51.024;13.826;2022-12-05T03:22:43;23.63;;;21.50;;
1276;SDS011;631;51.024;13.826;2022-12-05T03:25:15;23.27;;;21.30;;
1276;SDS011;631;51.024;13.826;2022-12-05T03:27:52;24.90;;;22.70;;
1276;SDS011;631;51.024;13.826;2022-12-05T03:30:25;23.93;;;21.93;;
1276;SDS011;631;51.024;13.826;2022-12-05T03:35:41;24.97;;;22.77;;
1276;SDS011;631;51.024;13.826;2022-12-05T03:41:13;24.50;;;22.20;;
1276;SDS011;631;51.024;13.826;2022-12-05T03:46:39;24.33;;;22.23;;
1276;SDS011;631;51.024;13.826;2022-12-05T03:49:29;24.17;;;21.87;;
1276;SDS011;631;51.024;13.826;2022-12-05T03:52:05;23.70;;;21.70;;
1276;SDS011;631;51.024;13.826;2022-12-05T03:54:43;23.33;;;21.23;;
1276;SDS011;631;51.024;13.826;2022-12-05T03:57:24;22.97;;;20.97;;
1276;SDS011;631;51.024;13.826;2022-12-05T04:00:16;22.53;;;20.43;;
1276;SDS011;631;51.024;13.826;2022-12-05T04:07:56;22.00;;;20.00;;
1276;SDS011;631;51.024;13.826;2022-12-05T04:10:26;22.10;;;20.20;;
1276;SDS011;631;51.024;13.826;2022-12-05T04:12:57;22.53;;;20.43;;
1276;SDS011;631;51.024;13.826;2022-12-05T04:15:41;22.13;;;20.30;;
1276;SDS011;631;51.024;13.826;2022-12-05T04:18:32;21.80;;;19.93;;
1276;SDS011;631;51.024;13.826;2022-12-05T04:21:01;22.03;;;20.03;;
1276;SDS011;631;51.024;13.826;2022-12-05T04:23:48;23.03;;;21.13;;
1276;SDS011;631;51.024;13.826;2022-12-05T04:26:33;21.70;;;19.90;;
1276;SDS011;631;51.024;13.826;2022-12-05T04:29:06;21.80;;;19.80;;
1276;SDS011;631;51.024;13.826;2022-12-05T04:31:42;21.13;;;19.23;;
1276;SDS011;631;51.024;13.826;2022-12-05T04:34:13;21.63;;;19.80;;
1276;SDS011;631;51.024;13.826;2022-12-05T04:36:51;20.73;;;19.03;;
1276;SDS011;631;51.024;13.826;2022-12-05T04:42:03;21.43;;;19.63;;
1276;SDS011;631;51.024;13.826;2022-12-05T04:44:39;20.37;;;18.67;;
1276;SDS011;631;51.024;13.826;2022-12-05T04:47:36;20.77;;;19.07;;
1276;SDS011;631;51.024;13.826;2022-12-05T04:50:06;20.97;;;19.13;;
1276;SDS011;631;51.024;13.826;2022-12-05T04:52:34;20.13;;;18.50;;
1276;SDS011;631;51.024;13.826;2022-12-05T04:55:08;21.03;;;19.27;;
1276;SDS011;631;51.024;13.826;2022-12-05T04:57:49;20.47;;;18.67;;
1276;SDS011;631;51.024;13.826;2022-12-05T05:00:20;19.80;;;18.20;;
1276;SDS011;631;51.024;13.826;2022-12-05T05:02:47;19.40;;;17.80;;
1276;SDS011;631;51.024;13.826;2022-12-05T05:05:19;20.07;;;18.47;;
1276;SDS011;631;51.024;13.826;2022-12-05T05:07:47;19.63;;;17.93;;
1276;SDS011;631;51.024;13.826;2022-12-05T05:10:16;20.83;;;19.13;;
1276;SDS011;631;51.024;13.826;2022-12-05T05:12:46;19.70;;;18.07;;
1276;SDS011;631;51.024;13.826;2022-12-05T05:15:12;19.83;;;18.10;;
1276;SDS011;631;51.024;13.826;2022-12-05T05:17:37;20.80;;;19.00;;
1276;SDS011;631;51.024;13.826;2022-12-05T05:20:03;20.20;;;18.57;;
1276;SDS011;631;51.024;13.826;2022-12-05T05:22:50;19.43;;;17.83;;
1276;SDS011;631;51.024;13.826;2022-12-05T05:25:20;20.47;;;18.70;;
1276;SDS011;631;51.024;13.826;2022-12-05T05:27:47;20.67;;;18.97;;
1276;SDS011;631;51.024;13.826;2022-12-05T05:30:14;19.93;;;18.23;;
1276;SDS011;631;51.024;13.826;2022-12-05T05:32:40;19.60;;;18.10;;
1276;SDS011;631;51.024;13.826;2022-12-05T05:35:05;20.17;;;18.50;;
1276;SDS011;631;51.024;13.826;2022-12-05T05:37:31;19.50;;;17.90;;
1276;SDS011;631;51.024;13.826;2022-12-05T05:39:57;20.63;;;18.90;;
1276;SDS011;631;51.024;13.826;2022-12-05T05:42:22;20.03;;;18.43;;
1276;SDS011;631;51.024;13.826;2022-12-05T05:44:48;21.20;;;19.60;;
1276;SDS011;631;51.024;13.826;2022-12-05T05:47:14;20.77;;;18.90;;
1276;SDS011;631;51.024;13.826;2022-12-05T05:49:39;19.50;;;17.83;;
1276;SDS011;631;51.024;13.826;2022-12-05T05:52:05;20.13;;;18.37;;
1276;SDS011;631;51.024;13.826;2022-12-05T05:54:30;20.40;;;18.60;;
1276;SDS011;631;51.024;13.826;2022-12-05T05:56:56;21.73;;;18.73;;
1276;SDS011;631;51.024;13.826;2022-12-05T05:59:21;21.47;;;19.63;;
1276;SDS011;631;51.024;13.826;2022-12-05T06:01:47;19.90;;;18.20;;
1276;SDS011;631;51.024;13.826;2022-12-05T06:04:13;20.53;;;18.83;;
1276;SDS011;631;51.024;13.826;2022-12-05T06:06:39;19.70;;;18.10;;
1276;SDS011;631;51.024;13.826;2022-12-05T06:09:05;20.77;;;18.97;;
1276;SDS011;631;51.024;13.826;2022-12-05T06:11:31;21.57;;;19.67;;
1276;SDS011;631;51.024;13.826;2022-12-05T06:13:58;20.27;;;18.67;;
1276;SDS011;631;51.024;13.826;2022-12-05T06:16:28;20.80;;;19.10;;
1276;SDS011;631;51.024;13.826;2022-12-05T06:18:54;21.80;;;20.00;;
1276;SDS011;631;51.024;13.826;2022-12-05T06:21:20;21.77;;;19.87;;
1276;SDS011;631;51.024;13.826;2022-12-05T06:23:47;21.73;;;19.93;;
1276;SDS011;631;51.024;13.826;2022-12-05T06:26:13;21.10;;;19.33;;
1276;SDS011;631;51.024;13.826;2022-12-05T06:28:41;20.40;;;18.60;;
1276;SDS011;631;51.024;13.826;2022-12-05T06:31:10;21.83;;;20.03;;
1276;SDS011;631;51.024;13.826;2022-12-05T06:33:41;20.90;;;19.00;;
1276;SDS011;631;51.024;13.826;2022-12-05T06:36:08;21.70;;;19.80;;
1276;SDS011;631;51.024;13.826;2022-12-05T06:38:38;20.00;;;18.20;;
1276;SDS011;631;51.024;13.826;2022-12-05T06:41:05;21.27;;;19.37;;
1276;SDS011;631;51.024;13.826;2022-12-05T06:43:32;21.00;;;19.20;;
1276;SDS011;631;51.024;13.826;2022-12-05T06:45:58;21.90;;;19.90;;
1276;SDS011;631;51.024;13.826;2022-12-05T06:48:23;21.83;;;20.03;;
1276;SDS011;631;51.024;13.826;2022-12-05T06:50:49;22.20;;;20.30;;
1276;SDS011;631;51.024;13.826;2022-12-05T06:53:16;21.30;;;19.40;;
1276;SDS011;631;51.024;13.826;2022-12-05T06:55:42;23.27;;;21.07;;
1276;SDS011;631;51.024;13.826;2022-12-05T06:58:08;21.50;;;19.80;;
1276;SDS011;631;51.024;13.826;2022-12-05T07:00:33;22.00;;;20.00;;
1276;SDS011;631;51.024;13.826;2022-12-05T07:03:18;22.17;;;20.23;;
1276;SDS011;631;51.024;13.826;2022-12-05T07:05:43;21.40;;;19.60;;
1276;SDS011;631;51.024;13.826;2022-12-05T07:08:09;21.13;;;19.30;;
1276;SDS011;631;51.024;13.826;2022-12-05T07:10:34;20.70;;;18.90;;
1276;SDS011;631;51.024;13.826;2022-12-05T07:13:00;22.70;;;20.70;;
1276;SDS011;631;51.024;13.826;2022-12-05T07:15:26;21.27;;;19.47;;
1276;SDS011;631;51.024;13.826;2022-12-05T07:17:51;19.60;;;18.00;;
1276;SDS011;631;51.024;13.826;2022-12-05T07:20:17;21.27;;;19.30;;
1276;SDS011;631;51.024;13.826;2022-12-05T07:22:43;21.73;;;19.80;;
1276;SDS011;631;51.024;13.826;2022-12-05T07:25:10;23.90;;;21.80;;
1276;SDS011;631;51.024;13.826;2022-12-05T07:27:36;21.00;;;19.20;;
1276;SDS011;631;51.024;13.826;2022-12-05T07:30:02;22.53;;;20.53;;
1276;SDS011;631;51.024;13.826;2022-12-05T07:32:32;21.73;;;19.93;;
1276;SDS011;631;51.024;13.826;2022-12-05T07:34:58;21.13;;;19.27;;
1276;SDS011;631;51.024;13.826;2022-12-05T07:37:24;21.90;;;20.00;;
1276;SDS011;631;51.024;13.826;2022-12-05T07:39:50;21.93;;;19.93;;
1276;SDS011;631;51.024;13.826;2022-12-05T07:42:17;21.37;;;19.20;;
1276;SDS011;631;51.024;13.826;2022-12-05T07:44:42;21.23;;;19.43;;
1276;SDS011;631;51.024;13.826;2022-12-05T07:47:08;21.60;;;19.80;;
1276;SDS011;631;51.024;13.826;2022-12-05T07:49:33;20.63;;;18.80;;
1276;SDS011;631;51.024;13.826;2022-12-05T07:51:59;20.80;;;19.07;;
1276;SDS011;631;51.024;13.826;2022-12-05T07:54:24;21.20;;;19.37;;
1276;SDS011;631;51.024;13.826;2022-12-05T07:56:51;20.63;;;18.90;;
1276;SDS011;631;51.024;13.826;2022-12-05T07:59:16;21.20;;;19.30;;
1276;SDS011;631;51.024;13.826;2022-12-05T08:01:42;21.60;;;19.60;;
1276;SDS011;631;51.024;13.826;2022-12-05T08:04:07;21.33;;;19.53;;
1276;SDS011;631;51.024;13.826;2022-12-05T08:06:33;20.53;;;18.80;;
1276;SDS011;631;51.024;13.826;2022-12-05T08:08:59;20.63;;;18.93;;
1276;SDS011;631;51.024;13.826;2022-12-05T08:11:25;20.60;;;18.87;;
1276;SDS011;631;51.024;13.826;2022-12-05T08:13:54;20.00;;;18.10;;
1276;SDS011;631;51.024;13.826;2022-12-05T08:16:21;20.60;;;18.70;;
1276;SDS011;631;51.024;13.826;2022-12-05T08:18:52;21.10;;;19.30;;
1276;SDS011;631;51.024;13.826;2022-12-05T08:21:25;20.80;;;19.00;;
1276;SDS011;631;51.024;13.826;2022-12-05T08:23:52;20.70;;;18.80;;
1276;SDS011;631;51.024;13.826;2022-12-05T08:26:19;22.93;;;20.73;;
1276;SDS011;631;51.024;13.826;2022-12-05T08:28:52;19.80;;;18.10;;
1276;SDS011;631;51.024;13.826;2022-12-05T08:31:19;20.47;;;18.57;;
1276;SDS011;631;51.024;13.826;2022-12-05T08:33:47;20.77;;;18.87;;
1276;SDS011;631;51.024;13.826;2022-12-05T08:36:14;19.33;;;17.73;;
1276;SDS011;631;51.024;13.826;2022-12-05T08:38:40;21.07;;;19.17;;
1276;SDS011;631;51.024;13.826;2022-12-05T08:41:07;21.10;;;19.10;;
1276;SDS011;631;51.024;13.826;2022-12-05T08:43:35;20.17;;;18.40;;
1276;SDS011;631;51.024;13.826;2022-12-05T08:46:01;20.87;;;19.00;;
1276;SDS011;631;51.024;13.826;2022-12-05T08:48:27;20.63;;;18.93;;
1276;SDS011;631;51.024;13.826;2022-12-05T08:50:54;19.30;;;17.70;;
1276;SDS011;631;51.024;13.826;2022-12-05T08:53:20;20.27;;;18.57;;
1276;SDS011;631;51.024;13.826;2022-12-05T08:55:46;19.33;;;17.73;;
1276;SDS011;631;51.024;13.826;2022-12-05T08:58:12;18.90;;;17.20;;
1276;SDS011;631;51.024;13.826;2022-12-05T09:00:38;19.97;;;18.27;;
1276;SDS011;631;51.024;13.826;2022-12-05T09:03:05;20.67;;;18.93;;
1276;SDS011;631;51.024;13.826;2022-12-05T09:05:31;19.90;;;18.20;;
1276;SDS011;631;51.024;13.826;2022-12-05T09:07:56;19.37;;;17.67;;
1276;SDS011;631;51.024;13.826;2022-12-05T09:10:23;19.90;;;18.30;;
1276;SDS011;631;51.024;13.826;2022-12-05T09:12:49;19.40;;;17.70;;
1276;SDS011;631;51.024;13.826;2022-12-05T09:15:15;18.83;;;17.23;;
1276;SDS011;631;51.024;13.826;2022-12-05T09:17:41;18.63;;;17.13;;
1276;SDS011;631;51.024;13.826;2022-12-05T09:20:07;19.00;;;17.40;;
1276;SDS011;631;51.024;13.826;2022-12-05T09:22:35;19.23;;;17.60;;
1276;SDS011;631;51.024;13.826;2022-12-05T09:25:02;20.60;;;18.70;;
1276;SDS011;631;51.024;13.826;2022-12-05T09:27:28;19.77;;;17.97;;
1276;SDS011;631;51.024;13.826;2022-12-05T09:29:54;19.53;;;17.73;;
1276;SDS011;631;51.024;13.826;2022-12-05T09:32:19;18.30;;;16.60;;
1276;SDS011;631;51.024;13.826;2022-12-05T09:34:45;19.73;;;17.93;;
1276;SDS011;631;51.024;13.826;2022-12-05T09:37:10;19.80;;;18.00;;
1276;SDS011;631;51.024;13.826;2022-12-05T09:39:36;18.60;;;16.90;;
1276;SDS011;631;51.024;13.826;2022-12-05T09:44:55;20.93;;;19.03;;
1276;SDS011;631;51.024;13.826;2022-12-05T09:47:48;21.73;;;19.73;;
1276;SDS011;631;51.024;13.826;2022-12-05T10:01:44;20.07;;;18.37;;
1276;SDS011;631;51.024;13.826;2022-12-05T10:04:26;20.60;;;18.80;;
1276;SDS011;631;51.024;13.826;2022-12-05T10:15:34;19.77;;;17.90;;
1276;SDS011;631;51.024;13.826;2022-12-05T10:23:50;19.73;;;17.90;;
1276;SDS011;631;51.024;13.826;2022-12-05T10:26:23;20.43;;;18.63;;
1276;SDS011;631;51.024;13.826;2022-12-05T10:28:57;19.93;;;18.23;;
1276;SDS011;631;51.024;13.826;2022-12-05T10:31:46;21.07;;;19.07;;
1276;SDS011;631;51.024;13.826;2022-12-05T10:36:53;21.10;;;18.90;;
1276;SDS011;631;51.024;13.826;2022-12-05T10:39:26;21.73;;;19.73;;
1276;SDS011;631;51.024;13.826;2022-12-05T10:41:52;20.73;;;18.80;;
1276;SDS011;631;51.024;13.826;2022-12-05T10:44:18;20.77;;;19.00;;
1276;SDS011;631;51.024;13.826;2022-12-05T10:46:44;20.93;;;19.13;;
1276;SDS011;631;51.024;13.826;2022-12-05T10:49:10;20.47;;;18.67;;
1276;SDS011;631;51.024;13.826;2022-12-05T10:51:37;21.13;;;19.23;;
1276;SDS011;631;51.024;13.826;2022-12-05T10:56:50;20.30;;;18.60;;
1276;SDS011;631;51.024;13.826;2022-12-05T10:59:17;20.00;;;18.10;;
1276;SDS011;631;51.024;13.826;2022-12-05T11:01:45;20.33;;;18.50;;
1276;SDS011;631;51.024;13.826;2022-12-05T11:04:23;21.93;;;19.93;;
1276;SDS011;631;51.024;13.826;2022-12-05T11:09:26;19.63;;;17.83;;
1276;SDS011;631;51.024;13.826;2022-12-05T11:14:54;20.67;;;18.87;;
1276;SDS011;631;51.024;13.826;2022-12-05T11:20:00;20.40;;;18.50;;
1276;SDS011;631;51.024;13.826;2022-12-05T11:22:31;21.87;;;19.87;;
1276;SDS011;631;51.024;13.826;2022-12-05T11:24:58;21.37;;;19.47;;
1276;SDS011;631;51.024;13.826;2022-12-05T11:27:33;22.50;;;20.50;;
1276;SDS011;631;51.024;13.826;2022-12-05T11:32:36;21.73;;;19.73;;
1276;SDS011;631;51.024;13.826;2022-12-05T11:57:46;21.33;;;19.43;;
1276;SDS011;631;51.024;13.826;2022-12-05T12:00:45;21.73;;;19.53;;
1276;SDS011;631;51.024;13.826;2022-12-05T12:08:55;20.73;;;18.93;;
1276;SDS011;631;51.024;13.826;2022-12-05T12:25:30;21.80;;;19.80;;
1276;SDS011;631;51.024;13.826;2022-12-05T12:36:15;21.73;;;19.83;;
1276;SDS011;631;51.024;13.826;2022-12-05T12:52:14;19.63;;;17.90;;
1276;SDS011;631;51.024;13.826;2022-12-05T12:54:56;20.70;;;18.80;;
1276;SDS011;631;51.024;13.826;2022-12-05T13:03:33;19.90;;;18.20;;
1276;SDS011;631;51.024;13.826;2022-12-05T13:06:15;22.30;;;20.30;;
1276;SDS011;631;51.024;13.826;2022-12-05T13:09:26;18.67;;;16.87;;
1276;SDS011;631;51.024;13.826;2022-12-05T13:11:45;20.73;;;18.83;;
1276;SDS011;631;51.024;13.826;2022-12-05T13:14:14;20.30;;;18.43;;
1276;SDS011;631;51.024;13.826;2022-12-05T13:16:43;18.20;;;16.60;;
1276;SDS011;631;51.024;13.826;2022-12-05T13:19:20;19.13;;;17.53;;
1276;SDS011;631;51.024;13.826;2022-12-05T13:22:01;19.13;;;17.50;;
1276;SDS011;631;51.024;13.826;2022-12-05T13:24:28;20.03;;;18.33;;
1276;SDS011;631;51.024;13.826;2022-12-05T13:26:56;19.20;;;17.60;;
1276;SDS011;631;51.024;13.826;2022-12-05T13:29:32;20.63;;;18.77;;
1276;SDS011;631;51.024;13.826;2022-12-05T13:32:00;19.43;;;17.83;;
1276;SDS011;631;51.024;13.826;2022-12-05T13:36:58;20.13;;;18.37;;
1276;SDS011;631;51.024;13.826;2022-12-05T13:39:50;19.43;;;17.63;;
1276;SDS011;631;51.024;13.826;2022-12-05T13:42:37;19.57;;;17.97;;
1276;SDS011;631;51.024;13.826;2022-12-05T13:51:27;20.60;;;18.90;;
1276;SDS011;631;51.024;13.826;2022-12-05T14:09:10;22.30;;;20.20;;
1276;SDS011;631;51.024;13.826;2022-12-05T14:22:36;23.07;;;20.70;;
1276;SDS011;631;51.024;13.826;2022-12-05T14:25:36;22.10;;;20.10;;
1276;SDS011;631;51.024;13.826;2022-12-05T14:28:17;22.30;;;20.20;;
1276;SDS011;631;51.024;13.826;2022-12-05T14:33:16;20.80;;;19.10;;
1276;SDS011;631;51.024;13.826;2022-12-05T14:35:49;22.90;;;21.00;;
1276;SDS011;631;51.024;13.826;2022-12-05T14:38:19;22.80;;;20.70;;
1276;SDS011;631;51.024;13.826;2022-12-05T14:40:52;19.50;;;17.70;;
1276;SDS011;631;51.024;13.826;2022-12-05T14:43:30;18.63;;;17.17;;
1276;SDS011;631;51.024;13.826;2022-12-05T14:46:02;18.73;;;17.17;;
1276;SDS011;631;51.024;13.826;2022-12-05T14:50:57;20.20;;;18.50;;
1276;SDS011;631;51.024;13.826;2022-12-05T15:00:56;19.10;;;17.50;;
1276;SDS011;631;51.024;13.826;2022-12-05T15:03:28;19.27;;;17.60;;
1276;SDS011;631;51.024;13.826;2022-12-05T15:05:56;19.17;;;17.57;;
1276;SDS011;631;51.024;13.826;2022-12-05T15:08:24;18.20;;;16.80;;
1276;SDS011;631;51.024;13.826;2022-12-05T15:10:51;19.20;;;17.70;;
1276;SDS011;631;51.024;13.826;2022-12-05T15:13:17;19.70;;;18.20;;
1276;SDS011;631;51.024;13.826;2022-12-05T15:16:00;19.47;;;17.93;;
1276;SDS011;631;51.024;13.826;2022-12-05T15:18:28;17.30;;;15.80;;
1276;SDS011;631;51.024;13.826;2022-12-05T15:26:40;15.80;;;14.67;;
1276;SDS011;631;51.024;13.826;2022-12-05T15:34:22;17.97;;;16.50;;
1276;SDS011;631;51.024;13.826;2022-12-05T15:39:48;18.37;;;17.07;;
1276;SDS011;631;51.024;13.826;2022-12-05T15:42:15;18.00;;;16.50;;
1276;SDS011;631;51.024;13.826;2022-12-05T15:44:41;17.90;;;16.40;;
1276;SDS011;631;51.024;13.826;2022-12-05T15:47:22;17.77;;;16.33;;
1276;SDS011;631;51.024;13.826;2022-12-05T15:49:50;19.73;;;18.13;;
1276;SDS011;631;51.024;13.826;2022-12-05T15:55:07;20.30;;;18.60;;
1276;SDS011;631;51.024;13.826;2022-12-05T15:57:40;21.17;;;19.37;;
1276;SDS011;631;51.024;13.826;2022-12-05T16:00:13;20.53;;;18.83;;
1276;SDS011;631;51.024;13.826;2022-12-05T16:05:23;21.07;;;19.27;;
1276;SDS011;631;51.024;13.826;2022-12-05T16:07:54;19.77;;;18.07;;
1276;SDS011;631;51.024;13.826;2022-12-05T16:10:20;20.30;;;18.63;;
1276;SDS011;631;51.024;13.826;2022-12-05T16:12:48;20.87;;;19.13;;
1276;SDS011;631;51.024;13.826;2022-12-05T16:15:19;21.73;;;19.83;;
1276;SDS011;631;51.024;13.826;2022-12-05T16:17:52;21.70;;;19.90;;
1276;SDS011;631;51.024;13.826;2022-12-05T16:20:29;21.50;;;19.80;;
1276;SDS011;631;51.024;13.826;2022-12-05T16:22:58;22.83;;;20.80;;
1276;SDS011;631;51.024;13.826;2022-12-05T16:25:30;20.73;;;19.07;;
1276;SDS011;631;51.024;13.826;2022-12-05T16:30:37;21.23;;;19.33;;
1276;SDS011;631;51.024;13.826;2022-12-05T16:33:04;21.97;;;20.00;;
1276;SDS011;631;51.024;13.826;2022-12-05T16:35:49;21.30;;;19.40;;
1276;SDS011;631;51.024;13.826;2022-12-05T16:38:19;22.57;;;20.47;;
1276;SDS011;631;51.024;13.826;2022-12-05T16:48:37;23.20;;;21.23;;
1276;SDS011;631;51.024;13.826;2022-12-05T16:53:44;22.20;;;20.40;;
1276;SDS011;631;51.024;13.826;2022-12-05T16:56:33;22.67;;;20.73;;
1276;SDS011;631;51.024;13.826;2022-12-05T16:59:01;25.03;;;22.83;;
1276;SDS011;631;51.024;13.826;2022-12-05T17:01:29;26.53;;;24.03;;
1276;SDS011;631;51.024;13.826;2022-12-05T17:03:55;26.00;;;23.40;;
1276;SDS011;631;51.024;13.826;2022-12-05T17:06:22;23.73;;;21.43;;
1276;SDS011;631;51.024;13.826;2022-12-05T17:08:49;22.27;;;20.40;;
1276;SDS011;631;51.024;13.826;2022-12-05T17:11:17;24.60;;;22.40;;
1276;SDS011;631;51.024;13.826;2022-12-05T17:13:46;25.23;;;23.07;;
1276;SDS011;631;51.024;13.826;2022-12-05T17:16:13;31.50;;;28.50;;
1276;SDS011;631;51.024;13.826;2022-12-05T17:18:43;20.60;;;19.00;;
1276;SDS011;631;51.024;13.826;2022-12-05T17:21:10;20.53;;;18.70;;
1276;SDS011;631;51.024;13.826;2022-12-05T17:23:39;28.30;;;25.70;;
1276;SDS011;631;51.024;13.826;2022-12-05T17:26:05;26.60;;;24.30;;
1276;SDS011;631;51.024;13.826;2022-12-05T17:28:32;23.00;;;21.00;;
1276;SDS011;631;51.024;13.826;2022-12-05T17:30:58;28.13;;;25.63;;
1276;SDS011;631;51.024;13.826;2022-12-05T17:33:24;31.77;;;28.37;;
1276;SDS011;631;51.024;13.826;2022-12-05T17:35:50;28.73;;;26.10;;
1276;SDS011;631;51.024;13.826;2022-12-05T17:38:16;26.50;;;23.90;;
1276;SDS011;631;51.024;13.826;2022-12-05T17:40:41;23.47;;;21.47;;
1276;SDS011;631;51.024;13.826;2022-12-05T17:43:09;23.63;;;21.63;;
1276;SDS011;631;51.024;13.826;2022-12-05T17:45:37;22.40;;;20.37;;
1276;SDS011;631;51.024;13.826;2022-12-05T17:48:03;23.73;;;21.53;;
1276;SDS011;631;51.024;13.826;2022-12-05T17:50:29;25.57;;;23.17;;
1276;SDS011;631;51.024;13.826;2022-12-05T17:52:55;25.27;;;22.97;;
1276;SDS011;631;51.024;13.826;2022-12-05T17:55:26;24.13;;;21.97;;
1276;SDS011;631;51.024;13.826;2022-12-05T17:57:53;25.63;;;23.27;;
1276;SDS011;631;51.024;13.826;2022-12-05T18:00:19;24.30;;;22.00;;
1276;SDS011;631;51.024;13.826;2022-12-05T18:02:46;23.80;;;21.70;;
1276;SDS011;631;51.024;13.826;2022-12-05T18:05:13;24.50;;;22.17;;
1276;SDS011;631;51.024;13.826;2022-12-05T18:07:40;23.13;;;21.03;;
1276;SDS011;631;51.024;13.826;2022-12-05T18:10:07;24.97;;;22.67;;
1276;SDS011;631;51.024;13.826;2022-12-05T18:12:35;23.77;;;21.67;;
1276;SDS011;631;51.024;13.826;2022-12-05T18:15:01;24.70;;;22.53;;
1276;SDS011;631;51.024;13.826;2022-12-05T18:17:27;24.03;;;21.93;;
1276;SDS011;631;51.024;13.826;2022-12-05T18:19:54;26.13;;;23.73;;
1276;SDS011;631;51.024;13.826;2022-12-05T18:22:23;25.33;;;22.90;;
1276;SDS011;631;51.024;13.826;2022-12-05T18:24:51;26.40;;;23.90;;
1276;SDS011;631;51.024;13.826;2022-12-05T18:27:17;26.00;;;23.60;;
1276;SDS011;631;51.024;13.826;2022-12-05T18:29:46;25.27;;;23.13;;
1276;SDS011;631;51.024;13.826;2022-12-05T18:32:12;26.17;;;23.93;;
1276;SDS011;631;51.024;13.826;2022-12-05T18:34:38;26.60;;;24.30;;
1276;SDS011;631;51.024;13.826;2022-12-05T18:37:04;29.33;;;26.60;;
1276;SDS011;631;51.024;13.826;2022-12-05T18:39:29;25.77;;;23.47;;
1276;SDS011;631;51.024;13.826;2022-12-05T18:41:55;28.93;;;26.07;;
1276;SDS011;631;51.024;13.826;2022-12-05T18:44:20;31.50;;;27.60;;
1276;SDS011;631;51.024;13.826;2022-12-05T18:46:46;33.30;;;29.90;;
1276;SDS011;631;51.024;13.826;2022-12-05T18:49:12;38.03;;;31.30;;
1276;SDS011;631;51.024;13.826;2022-12-05T18:51:38;31.73;;;28.50;;
1276;SDS011;631;51.024;13.826;2022-12-05T18:54:04;33.67;;;30.30;;
1276;SDS011;631;51.024;13.826;2022-12-05T18:56:31;31.47;;;28.23;;